sensor_id;sensor_type;location;lat;lon;timestamp;temperature;humidity
435;DHT22;204;48.942;9.256;2023-12-20T00:01:04;6.90;1.00
435;DHT22;204;48.942;9.256;2023-12-20T00:03:29;6.80;1.00
435;DHT22;204;48.942;9.256;2023-12-20T00:05:55;6.70;1.00
435;DHT22;204;48.942;9.256;2023-12-20T00:08:21;6.70;1.00
435;DHT22;204;48.942;9.256;2023-12-20T00:10:46;6.80;1.00
435;DHT22;204;48.942;9.256;2023-12-20T00:13:12;6.70;1.00
435;DHT22;204;48.942;9.256;2023-12-20T00:15:37;6.50;1.00
435;DHT22;204;48.942;9.256;2023-12-20T00:18:04;6.50;1.00
435;DHT22;204;48.942;9.256;2023-12-20T00:20:29;6.50;1.00
435;DHT22;204;48.942;9.256;2023-12-20T00:22:56;6.50;1.00
435;DHT22;204;48.942;9.256;2023-12-20T00:25:23;6.50;1.00
435;DHT22;204;48.942;9.256;2023-12-20T00:27:49;6.60;1.00
435;DHT22;204;48.942;9.256;2023-12-20T00:30:14;6.50;1.00
435;DHT22;204;48.942;9.256;2023-12-20T00:32:40;6.60;1.00
435;DHT22;204;48.942;9.256;2023-12-20T00:35:12;6.60;1.00
435;DHT22;204;48.942;9.256;2023-12-20T00:37:37;6.50;1.00
435;DHT22;204;48.942;9.256;2023-12-20T00:40:03;6.60;1.00
435;DHT22;204;48.942;9.256;2023-12-20T00:42:29;6.60;1.00
435;DHT22;204;48.942;9.256;2023-12-20T00:44:54;6.60;1.00
435;DHT22;204;48.942;9.256;2023-12-20T00:47:20;6.50;1.00
435;DHT22;204;48.942;9.256;2023-12-20T00:49:45;6.50;1.00
435;DHT22;204;48.942;9.256;2023-12-20T00:52:11;6.50;1.00
435;DHT22;204;48.942;9.256;2023-12-20T00:54:37;6.50;1.00
435;DHT22;204;48.942;9.256;2023-12-20T00:57:02;6.50;1.00
435;DHT22;204;48.942;9.256;2023-12-20T00:59:28;6.50;1.00
435;DHT22;204;48.942;9.256;2023-12-20T01:01:53;6.40;1.00
435;DHT22;204;48.942;9.256;2023-12-20T01:04:19;6.40;1.00
435;DHT22;204;48.942;9.256;2023-12-20T01:06:44;6.40;1.00
435;DHT22;204;48.942;9.256;2023-12-20T01:09:10;6.40;1.00
435;DHT22;204;48.942;9.256;2023-12-20T01:11:35;6.40;1.00
435;DHT22;204;48.942;9.256;2023-12-20T01:14:01;6.40;1.00
435;DHT22;204;48.942;9.256;2023-12-20T01:16:26;6.40;1.00
435;DHT22;204;48.942;9.256;2023-12-20T01:18:52;6.40;1.00
435;DHT22;204;48.942;9.256;2023-12-20T01:21:17;6.40;1.00
435;DHT22;204;48.942;9.256;2023-12-20T01:23:43;6.40;1.00
435;DHT22;204;48.942;9.256;2023-12-20T01:26:09;6.40;1.00
435;DHT22;204;48.942;9.256;2023-12-20T01:28:34;6.40;1.00
435;DHT22;204;48.942;9.256;2023-12-20T01:31:00;6.30;1.00
435;DHT22;204;48.942;9.256;2023-12-20T01:33:25;6.30;1.00
435;DHT22;204;48.942;9.256;2023-12-20T01:35:51;6.30;1.00
435;DHT22;204;48.942;9.256;2023-12-20T01:38:16;6.30;1.00
435;DHT22;204;48.942;9.256;2023-12-20T01:40:44;6.40;1.00
435;DHT22;204;48.942;9.256;2023-12-20T01:43:09;6.40;1.00
435;DHT22;204;48.942;9.256;2023-12-20T01:45:37;6.40;1.00
435;DHT22;204;48.942;9.256;2023-12-20T01:48:04;6.50;1.00
435;DHT22;204;48.942;9.256;2023-12-20T01:50:31;6.50;1.00
435;DHT22;204;48.942;9.256;2023-12-20T01:52:59;6.50;1.00
435;DHT22;204;48.942;9.256;2023-12-20T01:55:30;6.50;1.00
435;DHT22;204;48.942;9.256;2023-12-20T01:57:57;6.50;1.00
435;DHT22;204;48.942;9.256;2023-12-20T02:00:24;6.50;1.00
435;DHT22;204;48.942;9.256;2023-12-20T02:02:53;6.50;1.00
435;DHT22;204;48.942;9.256;2023-12-20T02:05:19;6.50;1.00
435;DHT22;204;48.942;9.256;2023-12-20T02:07:44;6.50;1.00
435;DHT22;204;48.942;9.256;2023-12-20T02:10:10;6.50;1.00
435;DHT22;204;48.942;9.256;2023-12-20T02:12:36;6.50;1.00
435;DHT22;204;48.942;9.256;2023-12-20T02:15:01;6.50;1.00
435;DHT22;204;48.942;9.256;2023-12-20T02:17:27;6.50;1.00
435;DHT22;204;48.942;9.256;2023-12-20T02:19:54;6.50;1.00
435;DHT22;204;48.942;9.256;2023-12-20T02:22:20;6.50;1.00
435;DHT22;204;48.942;9.256;2023-12-20T02:24:45;6.50;1.00
435;DHT22;204;48.942;9.256;2023-12-20T02:27:11;6.50;1.00
435;DHT22;204;48.942;9.256;2023-12-20T02:29:37;6.60;1.00
435;DHT22;204;48.942;9.256;2023-12-20T02:32:03;6.60;1.00
435;DHT22;204;48.942;9.256;2023-12-20T02:34:29;6.60;1.00
435;DHT22;204;48.942;9.256;2023-12-20T02:36:55;6.60;1.00
435;DHT22;204;48.942;9.256;2023-12-20T02:39:21;6.50;1.00
435;DHT22;204;48.942;9.256;2023-12-20T02:41:47;6.60;1.00
435;DHT22;204;48.942;9.256;2023-12-20T02:44:13;6.60;1.00
435;DHT22;204;48.942;9.256;2023-12-20T02:46:38;6.60;1.00
435;DHT22;204;48.942;9.256;2023-12-20T02:49:04;6.50;1.00
435;DHT22;204;48.942;9.256;2023-12-20T02:51:29;6.50;1.00
435;DHT22;204;48.942;9.256;2023-12-20T02:53:55;6.40;1.00
435;DHT22;204;48.942;9.256;2023-12-20T02:56:20;6.40;1.00
435;DHT22;204;48.942;9.256;2023-12-20T02:58:46;6.40;1.00
435;DHT22;204;48.942;9.256;2023-12-20T03:01:11;6.40;1.00
435;DHT22;204;48.942;9.256;2023-12-20T03:03:37;6.30;1.00
435;DHT22;204;48.942;9.256;2023-12-20T03:06:03;6.30;1.00
435;DHT22;204;48.942;9.256;2023-12-20T03:08:28;6.30;1.00
435;DHT22;204;48.942;9.256;2023-12-20T03:10:54;6.30;1.00
435;DHT22;204;48.942;9.256;2023-12-20T03:13:19;6.30;1.00
435;DHT22;204;48.942;9.256;2023-12-20T03:15:45;6.40;1.00
435;DHT22;204;48.942;9.256;2023-12-20T03:18:11;6.40;1.00
435;DHT22;204;48.942;9.256;2023-12-20T03:20:37;6.40;1.00
435;DHT22;204;48.942;9.256;2023-12-20T03:23:03;6.40;1.00
435;DHT22;204;48.942;9.256;2023-12-20T03:25:29;6.40;1.00
435;DHT22;204;48.942;9.256;2023-12-20T03:27:55;6.40;1.00
435;DHT22;204;48.942;9.256;2023-12-20T03:30:21;6.40;1.00
435;DHT22;204;48.942;9.256;2023-12-20T03:32:47;6.40;1.00
435;DHT22;204;48.942;9.256;2023-12-20T03:35:12;6.40;1.00
435;DHT22;204;48.942;9.256;2023-12-20T03:37:38;6.40;1.00
435;DHT22;204;48.942;9.256;2023-12-20T03:40:04;6.40;1.00
435;DHT22;204;48.942;9.256;2023-12-20T03:42:30;6.40;1.00
435;DHT22;204;48.942;9.256;2023-12-20T03:44:56;6.40;1.00
435;DHT22;204;48.942;9.256;2023-12-20T03:47:22;6.40;1.00
435;DHT22;204;48.942;9.256;2023-12-20T03:49:47;6.40;1.00
435;DHT22;204;48.942;9.256;2023-12-20T03:52:13;6.40;1.00
435;DHT22;204;48.942;9.256;2023-12-20T03:54:40;6.40;1.00
435;DHT22;204;48.942;9.256;2023-12-20T03:57:07;6.40;1.00
435;DHT22;204;48.942;9.256;2023-12-20T03:59:38;6.30;1.00
435;DHT22;204;48.942;9.256;2023-12-20T04:02:04;6.30;1.00
435;DHT22;204;48.942;9.256;2023-12-20T04:04:30;6.40;1.00
435;DHT22;204;48.942;9.256;2023-12-20T04:06:55;6.40;1.00
435;DHT22;204;48.942;9.256;2023-12-20T04:09:21;6.40;1.00
435;DHT22;204;48.942;9.256;2023-12-20T04:11:46;6.30;1.00
435;DHT22;204;48.942;9.256;2023-12-20T04:14:12;6.30;1.00
435;DHT22;204;48.942;9.256;2023-12-20T04:16:37;6.30;1.00
435;DHT22;204;48.942;9.256;2023-12-20T04:19:04;6.30;1.00
435;DHT22;204;48.942;9.256;2023-12-20T04:21:30;6.30;1.00
435;DHT22;204;48.942;9.256;2023-12-20T04:23:56;6.30;1.00
435;DHT22;204;48.942;9.256;2023-12-20T04:26:22;6.30;1.00
435;DHT22;204;48.942;9.256;2023-12-20T04:28:47;6.30;1.00
435;DHT22;204;48.942;9.256;2023-12-20T04:31:13;6.30;1.00
435;DHT22;204;48.942;9.256;2023-12-20T04:33:38;6.30;1.00
435;DHT22;204;48.942;9.256;2023-12-20T04:36:04;6.30;1.00
435;DHT22;204;48.942;9.256;2023-12-20T04:38:30;6.30;1.00
435;DHT22;204;48.942;9.256;2023-12-20T04:40:55;6.30;1.00
435;DHT22;204;48.942;9.256;2023-12-20T04:43:21;6.30;1.00
435;DHT22;204;48.942;9.256;2023-12-20T04:45:46;6.30;1.00
435;DHT22;204;48.942;9.256;2023-12-20T04:48:12;6.30;1.00
435;DHT22;204;48.942;9.256;2023-12-20T04:50:38;6.30;1.00
435;DHT22;204;48.942;9.256;2023-12-20T04:53:03;6.30;1.00
435;DHT22;204;48.942;9.256;2023-12-20T04:55:29;6.30;1.00
435;DHT22;204;48.942;9.256;2023-12-20T04:58:00;6.30;1.00
435;DHT22;204;48.942;9.256;2023-12-20T05:00:31;6.40;1.00
435;DHT22;204;48.942;9.256;2023-12-20T05:02:59;6.40;1.00
435;DHT22;204;48.942;9.256;2023-12-20T05:05:30;6.40;1.00
435;DHT22;204;48.942;9.256;2023-12-20T05:07:58;6.40;1.00
435;DHT22;204;48.942;9.256;2023-12-20T05:10:24;6.40;1.00
435;DHT22;204;48.942;9.256;2023-12-20T05:12:55;6.40;1.00
435;DHT22;204;48.942;9.256;2023-12-20T05:15:20;6.50;1.00
435;DHT22;204;48.942;9.256;2023-12-20T05:17:46;6.50;1.00
435;DHT22;204;48.942;9.256;2023-12-20T05:20:12;6.50;1.00
435;DHT22;204;48.942;9.256;2023-12-20T05:22:37;6.50;1.00
435;DHT22;204;48.942;9.256;2023-12-20T05:25:03;6.50;1.00
435;DHT22;204;48.942;9.256;2023-12-20T05:27:29;6.50;1.00
435;DHT22;204;48.942;9.256;2023-12-20T05:29:55;6.50;1.00
435;DHT22;204;48.942;9.256;2023-12-20T05:32:23;6.60;1.00
435;DHT22;204;48.942;9.256;2023-12-20T05:34:49;6.50;1.00
435;DHT22;204;48.942;9.256;2023-12-20T05:37:14;6.50;1.00
435;DHT22;204;48.942;9.256;2023-12-20T05:39:40;6.50;1.00
435;DHT22;204;48.942;9.256;2023-12-20T05:42:05;6.50;1.00
435;DHT22;204;48.942;9.256;2023-12-20T05:44:31;6.50;1.00
435;DHT22;204;48.942;9.256;2023-12-20T05:46:56;6.50;1.00
435;DHT22;204;48.942;9.256;2023-12-20T05:49:22;6.50;1.00
435;DHT22;204;48.942;9.256;2023-12-20T05:51:47;6.50;1.00
435;DHT22;204;48.942;9.256;2023-12-20T05:54:13;6.50;1.00
435;DHT22;204;48.942;9.256;2023-12-20T05:56:39;6.50;1.00
435;DHT22;204;48.942;9.256;2023-12-20T05:59:04;6.50;1.00
435;DHT22;204;48.942;9.256;2023-12-20T06:01:30;6.50;1.00
435;DHT22;204;48.942;9.256;2023-12-20T06:03:55;6.50;1.00
435;DHT22;204;48.942;9.256;2023-12-20T06:06:21;6.60;1.00
435;DHT22;204;48.942;9.256;2023-12-20T06:08:47;6.60;1.00
435;DHT22;204;48.942;9.256;2023-12-20T06:11:12;6.60;1.00
435;DHT22;204;48.942;9.256;2023-12-20T06:13:38;6.60;1.00
435;DHT22;204;48.942;9.256;2023-12-20T06:16:05;6.60;1.00
435;DHT22;204;48.942;9.256;2023-12-20T06:18:32;6.60;1.00
435;DHT22;204;48.942;9.256;2023-12-20T06:20:58;6.70;1.00
435;DHT22;204;48.942;9.256;2023-12-20T06:23:23;6.70;1.00
435;DHT22;204;48.942;9.256;2023-12-20T06:25:49;6.70;1.00
435;DHT22;204;48.942;9.256;2023-12-20T06:28:14;6.70;1.00
435;DHT22;204;48.942;9.256;2023-12-20T06:30:40;6.70;1.00
435;DHT22;204;48.942;9.256;2023-12-20T06:33:06;6.70;1.00
435;DHT22;204;48.942;9.256;2023-12-20T06:35:32;6.70;1.00
435;DHT22;204;48.942;9.256;2023-12-20T06:37:58;6.70;1.00
435;DHT22;204;48.942;9.256;2023-12-20T06:40:23;6.70;1.00
435;DHT22;204;48.942;9.256;2023-12-20T06:42:49;6.70;1.00
435;DHT22;204;48.942;9.256;2023-12-20T06:45:14;6.70;1.00
435;DHT22;204;48.942;9.256;2023-12-20T06:47:40;6.70;1.00
435;DHT22;204;48.942;9.256;2023-12-20T06:50:06;6.70;1.00
435;DHT22;204;48.942;9.256;2023-12-20T06:52:33;6.70;1.00
435;DHT22;204;48.942;9.256;2023-12-20T06:54:59;6.70;1.00
435;DHT22;204;48.942;9.256;2023-12-20T06:57:25;6.80;1.00
435;DHT22;204;48.942;9.256;2023-12-20T06:59:51;6.70;1.00
435;DHT22;204;48.942;9.256;2023-12-20T07:02:17;6.80;1.00
435;DHT22;204;48.942;9.256;2023-12-20T07:04:43;6.80;1.00
435;DHT22;204;48.942;9.256;2023-12-20T07:07:08;6.80;1.00
435;DHT22;204;48.942;9.256;2023-12-20T07:09:34;6.80;1.00
435;DHT22;204;48.942;9.256;2023-12-20T07:12:00;6.80;1.00
435;DHT22;204;48.942;9.256;2023-12-20T07:14:25;6.70;1.00
435;DHT22;204;48.942;9.256;2023-12-20T07:16:51;6.70;1.00
435;DHT22;204;48.942;9.256;2023-12-20T07:19:17;6.70;1.00
435;DHT22;204;48.942;9.256;2023-12-20T07:21:42;6.70;1.00
435;DHT22;204;48.942;9.256;2023-12-20T07:24:08;6.70;1.00
435;DHT22;204;48.942;9.256;2023-12-20T07:26:35;6.70;1.00
435;DHT22;204;48.942;9.256;2023-12-20T07:29:00;6.60;1.00
435;DHT22;204;48.942;9.256;2023-12-20T07:31:26;6.70;1.00
435;DHT22;204;48.942;9.256;2023-12-20T07:33:51;6.70;1.00
435;DHT22;204;48.942;9.256;2023-12-20T07:36:17;6.70;1.00
435;DHT22;204;48.942;9.256;2023-12-20T07:38:43;6.70;1.00
435;DHT22;204;48.942;9.256;2023-12-20T07:41:12;6.70;1.00
435;DHT22;204;48.942;9.256;2023-12-20T07:43:38;6.70;1.00
435;DHT22;204;48.942;9.256;2023-12-20T07:46:05;6.70;1.00
435;DHT22;204;48.942;9.256;2023-12-20T07:48:31;6.70;1.00
435;DHT22;204;48.942;9.256;2023-12-20T07:50:57;6.70;1.00
435;DHT22;204;48.942;9.256;2023-12-20T07:53:22;6.80;1.00
435;DHT22;204;48.942;9.256;2023-12-20T07:55:48;6.70;1.00
435;DHT22;204;48.942;9.256;2023-12-20T07:58:13;6.60;1.00
435;DHT22;204;48.942;9.256;2023-12-20T08:00:39;6.50;1.00
435;DHT22;204;48.942;9.256;2023-12-20T08:03:04;6.40;1.00
435;DHT22;204;48.942;9.256;2023-12-20T08:05:30;6.30;1.00
435;DHT22;204;48.942;9.256;2023-12-20T08:07:55;6.20;1.00
435;DHT22;204;48.942;9.256;2023-12-20T08:10:21;6.10;1.00
435;DHT22;204;48.942;9.256;2023-12-20T08:12:46;6.00;1.00
435;DHT22;204;48.942;9.256;2023-12-20T08:15:12;6.00;1.00
435;DHT22;204;48.942;9.256;2023-12-20T08:17:38;5.90;1.00
435;DHT22;204;48.942;9.256;2023-12-20T08:20:03;5.90;1.00
435;DHT22;204;48.942;9.256;2023-12-20T08:22:30;5.80;1.00
435;DHT22;204;48.942;9.256;2023-12-20T08:24:55;5.80;1.00
435;DHT22;204;48.942;9.256;2023-12-20T08:27:21;5.80;1.00
435;DHT22;204;48.942;9.256;2023-12-20T08:29:46;5.80;1.00
435;DHT22;204;48.942;9.256;2023-12-20T08:32:12;5.80;1.00
435;DHT22;204;48.942;9.256;2023-12-20T08:34:38;5.80;1.00
435;DHT22;204;48.942;9.256;2023-12-20T08:37:03;5.80;1.00
435;DHT22;204;48.942;9.256;2023-12-20T08:39:29;5.80;1.00
435;DHT22;204;48.942;9.256;2023-12-20T08:41:55;5.80;1.00
435;DHT22;204;48.942;9.256;2023-12-20T08:44:20;5.80;1.00
435;DHT22;204;48.942;9.256;2023-12-20T08:46:47;5.80;1.00
435;DHT22;204;48.942;9.256;2023-12-20T08:49:13;5.80;1.00
435;DHT22;204;48.942;9.256;2023-12-20T08:51:39;5.90;1.00
435;DHT22;204;48.942;9.256;2023-12-20T08:54:06;5.90;1.00
435;DHT22;204;48.942;9.256;2023-12-20T08:56:33;5.90;1.00
435;DHT22;204;48.942;9.256;2023-12-20T08:58:59;6.00;1.00
435;DHT22;204;48.942;9.256;2023-12-20T09:01:24;6.00;1.00
435;DHT22;204;48.942;9.256;2023-12-20T09:03:50;6.00;1.00
435;DHT22;204;48.942;9.256;2023-12-20T09:06:16;6.00;1.00
435;DHT22;204;48.942;9.256;2023-12-20T09:08:41;6.00;1.00
435;DHT22;204;48.942;9.256;2023-12-20T09:11:07;6.00;1.00
435;DHT22;204;48.942;9.256;2023-12-20T09:13:32;6.00;1.00
435;DHT22;204;48.942;9.256;2023-12-20T09:15:58;6.00;1.00
435;DHT22;204;48.942;9.256;2023-12-20T09:18:24;6.00;1.00
435;DHT22;204;48.942;9.256;2023-12-20T09:20:49;6.10;1.00
435;DHT22;204;48.942;9.256;2023-12-20T09:23:15;6.10;1.00
435;DHT22;204;48.942;9.256;2023-12-20T09:25:41;6.10;1.00
435;DHT22;204;48.942;9.256;2023-12-20T09:28:06;6.20;1.00
435;DHT22;204;48.942;9.256;2023-12-20T09:30:32;6.20;1.00
435;DHT22;204;48.942;9.256;2023-12-20T09:32:57;6.20;1.00
435;DHT22;204;48.942;9.256;2023-12-20T09:35:23;6.30;1.00
435;DHT22;204;48.942;9.256;2023-12-20T09:37:49;6.40;1.00
435;DHT22;204;48.942;9.256;2023-12-20T09:40:18;6.40;1.00
435;DHT22;204;48.942;9.256;2023-12-20T09:42:56;6.50;1.00
435;DHT22;204;48.942;9.256;2023-12-20T09:45:22;6.50;1.00
435;DHT22;204;48.942;9.256;2023-12-20T09:47:50;6.50;1.00
435;DHT22;204;48.942;9.256;2023-12-20T09:50:17;6.60;1.00
435;DHT22;204;48.942;9.256;2023-12-20T09:52:43;6.70;1.00
435;DHT22;204;48.942;9.256;2023-12-20T09:55:10;6.70;1.00
435;DHT22;204;48.942;9.256;2023-12-20T09:57:35;6.70;1.00
435;DHT22;204;48.942;9.256;2023-12-20T10:00:01;6.80;1.00
435;DHT22;204;48.942;9.256;2023-12-20T10:02:27;6.80;1.00
435;DHT22;204;48.942;9.256;2023-12-20T10:04:57;6.80;1.00
435;DHT22;204;48.942;9.256;2023-12-20T10:07:23;6.80;1.00
435;DHT22;204;48.942;9.256;2023-12-20T10:09:49;6.80;1.00
435;DHT22;204;48.942;9.256;2023-12-20T10:12:15;6.80;1.00
435;DHT22;204;48.942;9.256;2023-12-20T10:14:41;6.80;1.00
435;DHT22;204;48.942;9.256;2023-12-20T10:17:07;6.90;1.00
435;DHT22;204;48.942;9.256;2023-12-20T10:19:33;7.00;1.00
435;DHT22;204;48.942;9.256;2023-12-20T10:21:59;7.00;1.00
435;DHT22;204;48.942;9.256;2023-12-20T10:24:25;7.10;1.00
435;DHT22;204;48.942;9.256;2023-12-20T10:27:08;7.20;1.00
435;DHT22;204;48.942;9.256;2023-12-20T10:29:35;7.30;1.00
435;DHT22;204;48.942;9.256;2023-12-20T10:32:24;7.30;1.00
435;DHT22;204;48.942;9.256;2023-12-20T10:34:51;7.40;1.00
435;DHT22;204;48.942;9.256;2023-12-20T10:37:16;7.40;1.00
435;DHT22;204;48.942;9.256;2023-12-20T10:39:43;7.40;1.00
435;DHT22;204;48.942;9.256;2023-12-20T10:42:12;7.30;1.00
435;DHT22;204;48.942;9.256;2023-12-20T10:44:38;7.20;1.00
435;DHT22;204;48.942;9.256;2023-12-20T10:47:04;7.10;1.00
435;DHT22;204;48.942;9.256;2023-12-20T10:49:31;7.00;1.00
435;DHT22;204;48.942;9.256;2023-12-20T10:52:02;7.00;1.00
435;DHT22;204;48.942;9.256;2023-12-20T10:54:29;6.90;1.00
435;DHT22;204;48.942;9.256;2023-12-20T10:56:57;6.90;1.00
435;DHT22;204;48.942;9.256;2023-12-20T10:59:23;6.90;1.00
435;DHT22;204;48.942;9.256;2023-12-20T11:01:50;6.90;1.00
435;DHT22;204;48.942;9.256;2023-12-20T11:04:23;7.00;1.00
435;DHT22;204;48.942;9.256;2023-12-20T11:09:57;7.50;1.00
435;DHT22;204;48.942;9.256;2023-12-20T11:12:38;7.60;1.00
435;DHT22;204;48.942;9.256;2023-12-20T11:15:08;7.80;1.00
435;DHT22;204;48.942;9.256;2023-12-20T11:17:34;7.90;1.00
435;DHT22;204;48.942;9.256;2023-12-20T11:22:29;8.10;1.00
435;DHT22;204;48.942;9.256;2023-12-20T11:25:02;8.20;1.00
435;DHT22;204;48.942;9.256;2023-12-20T11:27:28;8.30;1.00
435;DHT22;204;48.942;9.256;2023-12-20T11:29:58;8.20;1.00
435;DHT22;204;48.942;9.256;2023-12-20T11:34:58;8.30;1.00
435;DHT22;204;48.942;9.256;2023-12-20T11:37:31;8.20;1.00
435;DHT22;204;48.942;9.256;2023-12-20T11:40:07;8.10;1.00
435;DHT22;204;48.942;9.256;2023-12-20T11:42:49;8.00;1.00
435;DHT22;204;48.942;9.256;2023-12-20T11:45:18;7.80;1.00
435;DHT22;204;48.942;9.256;2023-12-20T11:47:49;7.70;1.00
435;DHT22;204;48.942;9.256;2023-12-20T11:50:20;7.60;1.00
435;DHT22;204;48.942;9.256;2023-12-20T11:52:47;7.70;1.00
435;DHT22;204;48.942;9.256;2023-12-20T11:55:13;7.70;1.00
435;DHT22;204;48.942;9.256;2023-12-20T11:57:39;7.60;1.00
435;DHT22;204;48.942;9.256;2023-12-20T12:00:05;7.70;1.00
435;DHT22;204;48.942;9.256;2023-12-20T12:02:31;7.80;1.00
435;DHT22;204;48.942;9.256;2023-12-20T12:04:58;7.90;1.00
435;DHT22;204;48.942;9.256;2023-12-20T12:07:24;8.10;1.00
435;DHT22;204;48.942;9.256;2023-12-20T12:09:50;8.10;1.00
435;DHT22;204;48.942;9.256;2023-12-20T12:12:16;8.20;1.00
435;DHT22;204;48.942;9.256;2023-12-20T12:14:42;8.30;1.00
435;DHT22;204;48.942;9.256;2023-12-20T12:17:14;8.30;1.00
435;DHT22;204;48.942;9.256;2023-12-20T12:19:40;8.40;1.00
435;DHT22;204;48.942;9.256;2023-12-20T12:24:39;8.50;1.00
435;DHT22;204;48.942;9.256;2023-12-20T12:27:08;8.70;1.00
435;DHT22;204;48.942;9.256;2023-12-20T12:29:35;8.80;1.00
435;DHT22;204;48.942;9.256;2023-12-20T12:32:01;8.70;99.90
435;DHT22;204;48.942;9.256;2023-12-20T12:34:29;8.60;99.90
435;DHT22;204;48.942;9.256;2023-12-20T12:36:56;8.50;99.90
435;DHT22;204;48.942;9.256;2023-12-20T12:39:23;8.40;99.90
435;DHT22;204;48.942;9.256;2023-12-20T12:41:53;8.40;99.90
435;DHT22;204;48.942;9.256;2023-12-20T12:44:19;8.30;99.90
435;DHT22;204;48.942;9.256;2023-12-20T12:46:45;8.30;1.00
435;DHT22;204;48.942;9.256;2023-12-20T12:49:11;8.20;1.00
435;DHT22;204;48.942;9.256;2023-12-20T12:51:37;8.20;1.00
435;DHT22;204;48.942;9.256;2023-12-20T12:54:03;8.20;1.00
435;DHT22;204;48.942;9.256;2023-12-20T12:56:29;8.20;1.00
435;DHT22;204;48.942;9.256;2023-12-20T12:58:55;8.10;1.00
435;DHT22;204;48.942;9.256;2023-12-20T13:01:20;8.10;1.00
435;DHT22;204;48.942;9.256;2023-12-20T13:03:46;8.00;1.00
435;DHT22;204;48.942;9.256;2023-12-20T13:06:12;7.90;1.00
435;DHT22;204;48.942;9.256;2023-12-20T13:08:38;7.90;1.00
435;DHT22;204;48.942;9.256;2023-12-20T13:11:04;7.90;1.00
435;DHT22;204;48.942;9.256;2023-12-20T13:13:30;7.90;1.00
435;DHT22;204;48.942;9.256;2023-12-20T13:15:56;7.90;1.00
435;DHT22;204;48.942;9.256;2023-12-20T13:18:22;7.90;1.00
435;DHT22;204;48.942;9.256;2023-12-20T13:20:48;8.00;1.00
435;DHT22;204;48.942;9.256;2023-12-20T13:23:14;8.00;1.00
435;DHT22;204;48.942;9.256;2023-12-20T13:25:41;8.00;1.00
435;DHT22;204;48.942;9.256;2023-12-20T13:28:07;8.00;1.00
435;DHT22;204;48.942;9.256;2023-12-20T13:30:33;8.10;1.00
435;DHT22;204;48.942;9.256;2023-12-20T13:32:59;8.00;1.00
435;DHT22;204;48.942;9.256;2023-12-20T13:35:25;7.90;1.00
435;DHT22;204;48.942;9.256;2023-12-20T13:37:50;7.90;1.00
435;DHT22;204;48.942;9.256;2023-12-20T13:40:16;7.90;1.00
435;DHT22;204;48.942;9.256;2023-12-20T13:42:42;7.90;1.00
435;DHT22;204;48.942;9.256;2023-12-20T13:45:08;7.80;1.00
435;DHT22;204;48.942;9.256;2023-12-20T13:47:35;7.80;1.00
435;DHT22;204;48.942;9.256;2023-12-20T13:50:01;7.70;1.00
435;DHT22;204;48.942;9.256;2023-12-20T13:52:27;7.60;1.00
435;DHT22;204;48.942;9.256;2023-12-20T13:54:53;7.50;1.00
435;DHT22;204;48.942;9.256;2023-12-20T13:57:18;7.50;1.00
435;DHT22;204;48.942;9.256;2023-12-20T13:59:44;7.50;1.00
435;DHT22;204;48.942;9.256;2023-12-20T14:02:10;7.50;1.00
435;DHT22;204;48.942;9.256;2023-12-20T14:04:36;7.40;1.00
435;DHT22;204;48.942;9.256;2023-12-20T14:07:01;7.30;1.00
435;DHT22;204;48.942;9.256;2023-12-20T14:09:27;7.30;1.00
435;DHT22;204;48.942;9.256;2023-12-20T14:11:52;7.30;1.00
435;DHT22;204;48.942;9.256;2023-12-20T14:14:20;7.30;1.00
435;DHT22;204;48.942;9.256;2023-12-20T14:16:45;7.30;1.00
435;DHT22;204;48.942;9.256;2023-12-20T14:19:12;7.40;1.00
435;DHT22;204;48.942;9.256;2023-12-20T14:21:37;7.40;1.00
435;DHT22;204;48.942;9.256;2023-12-20T14:24:03;7.40;1.00
435;DHT22;204;48.942;9.256;2023-12-20T14:26:30;7.40;1.00
435;DHT22;204;48.942;9.256;2023-12-20T14:28:55;7.40;1.00
435;DHT22;204;48.942;9.256;2023-12-20T14:31:21;7.40;1.00
435;DHT22;204;48.942;9.256;2023-12-20T14:33:49;7.40;1.00
435;DHT22;204;48.942;9.256;2023-12-20T14:36:16;7.40;1.00
435;DHT22;204;48.942;9.256;2023-12-20T14:38:43;7.30;1.00
435;DHT22;204;48.942;9.256;2023-12-20T14:41:09;7.20;1.00
435;DHT22;204;48.942;9.256;2023-12-20T14:43:34;7.10;1.00
435;DHT22;204;48.942;9.256;2023-12-20T14:46:00;7.00;1.00
435;DHT22;204;48.942;9.256;2023-12-20T14:48:25;7.00;1.00
435;DHT22;204;48.942;9.256;2023-12-20T14:50:53;6.90;1.00
435;DHT22;204;48.942;9.256;2023-12-20T14:53:19;6.90;1.00
435;DHT22;204;48.942;9.256;2023-12-20T14:55:45;6.90;1.00
435;DHT22;204;48.942;9.256;2023-12-20T14:58:11;6.80;1.00
435;DHT22;204;48.942;9.256;2023-12-20T15:00:37;6.80;1.00
435;DHT22;204;48.942;9.256;2023-12-20T15:03:03;6.80;1.00
435;DHT22;204;48.942;9.256;2023-12-20T15:05:30;6.80;1.00
435;DHT22;204;48.942;9.256;2023-12-20T15:07:56;6.80;1.00
435;DHT22;204;48.942;9.256;2023-12-20T15:10:22;6.80;1.00
435;DHT22;204;48.942;9.256;2023-12-20T15:12:47;6.70;1.00
435;DHT22;204;48.942;9.256;2023-12-20T15:15:13;6.80;1.00
435;DHT22;204;48.942;9.256;2023-12-20T15:17:39;6.70;1.00
435;DHT22;204;48.942;9.256;2023-12-20T15:20:05;6.70;1.00
435;DHT22;204;48.942;9.256;2023-12-20T15:22:31;6.70;1.00
435;DHT22;204;48.942;9.256;2023-12-20T15:24:59;6.70;1.00
435;DHT22;204;48.942;9.256;2023-12-20T15:27:25;6.60;1.00
435;DHT22;204;48.942;9.256;2023-12-20T15:29:50;6.60;1.00
435;DHT22;204;48.942;9.256;2023-12-20T15:32:17;6.70;1.00
435;DHT22;204;48.942;9.256;2023-12-20T15:34:44;6.60;1.00
435;DHT22;204;48.942;9.256;2023-12-20T15:37:10;6.60;1.00
435;DHT22;204;48.942;9.256;2023-12-20T15:39:36;6.60;1.00
435;DHT22;204;48.942;9.256;2023-12-20T15:42:01;6.60;1.00
435;DHT22;204;48.942;9.256;2023-12-20T15:44:27;6.60;1.00
435;DHT22;204;48.942;9.256;2023-12-20T15:46:53;6.60;1.00
435;DHT22;204;48.942;9.256;2023-12-20T15:49:18;6.60;1.00
435;DHT22;204;48.942;9.256;2023-12-20T15:51:44;6.50;1.00
435;DHT22;204;48.942;9.256;2023-12-20T15:54:10;6.50;1.00
435;DHT22;204;48.942;9.256;2023-12-20T15:56:36;6.50;1.00
435;DHT22;204;48.942;9.256;2023-12-20T15:59:03;6.50;1.00
435;DHT22;204;48.942;9.256;2023-12-20T16:01:31;6.50;1.00
435;DHT22;204;48.942;9.256;2023-12-20T16:03:57;6.50;1.00
435;DHT22;204;48.942;9.256;2023-12-20T16:06:23;6.50;1.00
435;DHT22;204;48.942;9.256;2023-12-20T16:08:49;6.50;1.00
435;DHT22;204;48.942;9.256;2023-12-20T16:11:15;6.50;1.00
435;DHT22;204;48.942;9.256;2023-12-20T16:13:41;6.50;1.00
435;DHT22;204;48.942;9.256;2023-12-20T16:16:06;6.50;1.00
435;DHT22;204;48.942;9.256;2023-12-20T16:18:32;6.50;1.00
435;DHT22;204;48.942;9.256;2023-12-20T16:20:58;6.50;1.00
435;DHT22;204;48.942;9.256;2023-12-20T16:23:26;6.50;1.00
435;DHT22;204;48.942;9.256;2023-12-20T16:25:52;6.50;1.00
435;DHT22;204;48.942;9.256;2023-12-20T16:28:18;6.40;1.00
435;DHT22;204;48.942;9.256;2023-12-20T16:30:44;6.50;1.00
435;DHT22;204;48.942;9.256;2023-12-20T16:33:09;6.40;1.00
435;DHT22;204;48.942;9.256;2023-12-20T16:35:35;6.40;1.00
435;DHT22;204;48.942;9.256;2023-12-20T16:38:01;6.40;1.00
435;DHT22;204;48.942;9.256;2023-12-20T16:40:26;6.40;1.00
435;DHT22;204;48.942;9.256;2023-12-20T16:42:52;6.40;1.00
435;DHT22;204;48.942;9.256;2023-12-20T16:45:19;6.50;1.00
435;DHT22;204;48.942;9.256;2023-12-20T16:47:45;6.50;1.00
435;DHT22;204;48.942;9.256;2023-12-20T16:50:11;6.60;1.00
435;DHT22;204;48.942;9.256;2023-12-20T16:52:36;6.60;1.00
435;DHT22;204;48.942;9.256;2023-12-20T16:55:04;6.60;1.00
435;DHT22;204;48.942;9.256;2023-12-20T16:57:30;6.70;1.00
435;DHT22;204;48.942;9.256;2023-12-20T16:59:55;6.70;1.00
435;DHT22;204;48.942;9.256;2023-12-20T17:02:21;6.80;1.00
435;DHT22;204;48.942;9.256;2023-12-20T17:04:46;6.80;1.00
435;DHT22;204;48.942;9.256;2023-12-20T17:07:12;6.80;1.00
435;DHT22;204;48.942;9.256;2023-12-20T17:09:38;6.80;1.00
435;DHT22;204;48.942;9.256;2023-12-20T17:12:05;6.80;1.00